Time;durP1;ratioP1;P1;durP2;ratioP2;P2;SDS_P1;SDS_P2;PMS_P1;PMS_P2;Temp;Humidity;BMP_temperature;BMP_pressure;BME280_temperature;BME280_humidity;BME280_pressure;Samples;Min_cycle;Max_cycle;Signal;HPM_P1;HPM_P2
2023/10/16 00:03:52;;;;;;;11.10;3.90;;;;;;;6.24;94.08;99206.56;272314;1272;23096;-83
2023/10/16 00:09:54;;;;;;;10.00;4.10;;;;;;;6.21;94.46;99205.68;271398;1273;22528;-83
2023/10/16 00:16:02;;;;;;;11.10;3.90;;;;;;;6.19;94.72;99206.37;269832;1273;22534;-83
2023/10/16 00:22:21;;;;;;;8.30;3.00;;;;;;;6.13;94.82;99209.90;270014;1272;22209;-84
2023/10/16 00:28:23;;;;;;;7.10;2.90;;;;;;;6.10;95.16;99205.47;269732;1272;22494;-84
2023/10/16 00:34:29;;;;;;;9.00;3.80;;;;;;;6.08;95.26;99206.17;270334;1272;22578;-84
2023/10/16 00:40:37;;;;;;;9.20;3.70;;;;;;;6.07;95.20;99203.91;270007;1272;22211;-83
2023/10/16 00:46:45;;;;;;;13.90;4.50;;;;;;;6.06;95.45;99206.52;271481;1273;22608;-82
2023/10/16 00:52:52;;;;;;;9.70;3.30;;;;;;;5.96;95.26;99205.09;269912;1272;22354;-82
2023/10/16 00:58:57;;;;;;;;;;;;;;;5.91;95.33;99210.89;269883;1273;24190;-83
2023/10/16 01:05:02;;;;;;;12.40;3.60;;;;;;;5.78;95.27;99223.09;270968;1272;22711;-84
2023/10/16 01:12:05;;;;;;;;;;;;;;;;;;;;;
2023/10/16 01:19:08;;;;;;;;;;;;;;;;;;;;;
2023/10/16 01:25:43;;;;;;;7.90;2.00;;;;;;;5.77;96.18;99233.48;272308;1272;22350;-86
2023/10/16 01:31:56;;;;;;;4.60;2.40;;;;;;;5.73;96.24;99230.23;271360;1272;22577;-84
2023/10/16 01:38:20;;;;;;;11.00;2.30;;;;;;;5.73;96.64;99226.20;271440;1272;22319;-84
2023/10/16 01:44:44;;;;;;;7.60;2.30;;;;;;;5.74;96.55;99222.58;271021;1266;22571;-84
2023/10/16 01:51:44;;;;;;;8.20;1.90;;;;;;;5.78;96.60;99220.08;271808;1272;23118;-84
2023/10/16 01:58:34;;;;;;;;;;;;;;;;;;;;;
2023/10/16 02:04:54;;;;;;;6.90;1.80;;;;;;;5.97;97.00;99207.30;272684;1272;22313;-84
2023/10/16 02:11:13;;;;;;;;;;;;;;;6.08;96.89;99218.16;271347;1265;22496;-83
2023/10/16 02:17:38;;;;;;;6.20;1.50;;;;;;;6.14;96.79;99219.88;272694;1274;23033;-81
2023/10/16 02:24:24;;;;;;;;;;;;;;;;;;;;;
2023/10/16 02:31:18;;;;;;;6.90;1.80;;;;;;;6.29;96.46;99234.84;271410;1272;22211;-83
2023/10/16 02:37:20;;;;;;;3.40;1.30;;;;;;;6.33;95.89;99234.40;272766;1273;23604;-83
2023/10/16 02:44:02;;;;;;;;;;;;;;;;;;;;;
2023/10/16 02:50:14;;;;;;;3.90;1.20;;;;;;;6.39;95.29;99239.73;272425;1273;22329;-82
2023/10/16 02:56:32;;;;;;;7.10;1.60;;;;;;;6.46;95.58;99235.87;272006;1272;23015;-82
2023/10/16 03:02:57;;;;;;;7.40;1.70;;;;;;;6.51;95.54;99237.89;271219;1268;25162;-82
2023/10/16 03:15:29;;;;;;;3.70;1.60;;;;;;;6.56;95.14;99243.50;269874;1266;22939;-82
2023/10/16 03:21:34;;;;;;;6.50;2.50;;;;;;;6.57;95.07;99251.00;271481;1272;22541;-82
2023/10/16 03:27:50;;;;;;;3.80;1.60;;;;;;;6.60;95.07;99255.20;270610;1273;22225;-83
2023/10/16 03:33:53;;;;;;;5.80;1.70;;;;;;;6.62;95.08;99250.13;270750;1257;22994;-83
2023/10/16 03:39:59;;;;;;;7.50;2.00;;;;;;;6.64;94.89;99246.23;272100;1272;22980;-84
2023/10/16 03:46:12;;;;;;;5.60;1.40;;;;;;;6.66;94.65;99244.42;271861;1273;22569;-82
2023/10/16 03:52:27;;;;;;;11.60;1.70;;;;;;;6.70;94.58;99240.45;270551;1272;226058;-82
2023/10/16 03:59:06;;;;;;;9.30;2.60;;;;;;;6.76;94.74;99240.54;271850;1273;22330;-82
2023/10/16 04:06:30;;;;;;;9.00;2.00;;;;;;;6.77;94.46;99241.34;272138;1273;22282;-83
2023/10/16 04:13:01;;;;;;;6.30;2.00;;;;;;;6.80;94.41;99243.52;271785;1273;22833;-83
2023/10/16 04:19:42;;;;;;;6.40;2.10;;;;;;;6.81;94.19;99241.70;271678;1272;24561;-83
2023/10/16 04:32:51;;;;;;;;;;;;;;;;;;;;;
2023/10/16 04:46:15;;;;;;;6.10;1.80;;;;;;;6.91;93.36;99249.67;269813;1270;22533;-81
2023/10/16 04:52:36;;;;;;;5.10;1.30;;;;;;;6.91;93.28;99258.07;271649;1272;22567;-82
2023/10/16 04:58:38;;;;;;;7.80;2.40;;;;;;;6.89;93.09;99263.48;271534;1272;22594;-83
2023/10/16 05:04:59;;;;;;;5.90;2.00;;;;;;;6.91;93.40;99265.15;271899;1272;22905;-83
2023/10/16 06:16:29;;;;;;;4.80;1.60;;;;;;;7.07;92.84;99315.58;270823;1273;22555;-84
2023/10/16 06:22:32;;;;;;;6.60;2.20;;;;;;;7.09;92.76;99317.88;270352;1273;23301;-83
2023/10/16 06:28:34;;;;;;;4.70;2.10;;;;;;;7.09;92.71;99321.48;270636;1272;22525;-84
2023/10/16 06:34:46;;;;;;;3.40;2.30;;;;;;;7.10;92.68;99328.48;271003;1273;26508;-83
2023/10/16 06:41:01;;;;;;;9.00;2.70;;;;;;;7.11;92.66;99333.33;272343;1264;22212;-85
2023/10/16 06:47:47;;;;;;;9.50;3.00;;;;;;;7.11;92.70;99336.38;271599;1272;25149;-82
2023/10/16 06:55:04;;;;;;;6.60;1.70;;;;;;;7.10;92.29;99339.38;272020;1272;22335;-83
2023/10/16 07:01:46;;;;;;;4.40;2.00;;;;;;;7.10;92.45;99349.04;271636;1272;23380;-85
2023/10/16 07:07:53;;;;;;;9.30;2.40;;;;;;;7.11;92.62;99352.17;270432;1267;23313;-84
2023/10/16 07:14:17;;;;;;;8.40;3.10;;;;;;;7.12;92.77;99363.38;271650;1272;22447;-83
2023/10/16 07:20:30;;;;;;;6.50;2.40;;;;;;;7.09;92.61;99369.23;271736;1273;25490;-83
2023/10/16 07:26:46;;;;;;;10.20;2.30;;;;;;;7.05;92.40;99370.34;270273;1272;22406;-83
2023/10/16 07:32:56;;;;;;;7.50;2.90;;;;;;;7.06;92.30;99374.59;270779;1273;25246;-84
2023/10/16 07:38:58;;;;;;;9.80;2.70;;;;;;;7.07;92.19;99378.02;270680;1272;25386;-83
2023/10/16 07:45:00;;;;;;;6.60;2.90;;;;;;;7.04;91.97;99381.51;271805;1270;22425;-83
2023/10/16 07:51:15;;;;;;;6.00;2.60;;;;;;;7.02;92.00;99376.08;270835;1272;22229;-83
2023/10/16 07:57:23;;;;;;;7.40;2.80;;;;;;;7.00;91.85;99375.77;271326;1272;23078;-83
2023/10/16 08:03:27;;;;;;;7.50;2.20;;;;;;;7.00;92.00;99380.91;269183;1273;22541;-83
2023/10/16 08:15:49;;;;;;;11.90;3.30;;;;;;;7.10;92.89;99391.96;272333;1273;23651;-82
2023/10/16 08:22:16;;;;;;;8.30;3.30;;;;;;;7.20;92.55;99384.63;272257;1273;23766;-80
2023/10/16 08:28:22;;;;;;;6.70;3.10;;;;;;;7.33;92.77;99385.04;271437;1269;22555;-85
2023/10/16 08:34:27;;;;;;;6.20;2.30;;;;;;;7.46;92.60;99393.36;271265;1271;22193;-84
2023/10/16 08:40:46;;;;;;;6.60;2.90;;;;;;;7.55;92.21;99399.70;271146;1273;23911;-83
2023/10/16 08:53:05;;;;;;;10.30;3.10;;;;;;;7.65;92.28;99404.30;270411;1268;22576;-83
2023/10/16 08:59:08;;;;;;;8.40;3.10;;;;;;;7.73;91.99;99405.91;270835;1274;22560;-82
2023/10/16 09:05:11;;;;;;;8.00;3.50;;;;;;;7.78;91.75;99402.87;270217;1273;22552;-82
2023/10/16 09:11:16;;;;;;;8.00;3.80;;;;;;;7.80;91.39;99408.48;269744;1273;22307;-83
2023/10/16 09:17:43;;;;;;;;;;;;;;;7.81;91.35;99417.75;272900;1272;22406;-82
2023/10/16 09:23:51;;;;;;;8.60;3.00;;;;;;;7.79;90.71;99417.86;272900;1277;22182;-82
2023/10/16 09:30:00;;;;;;;9.90;2.80;;;;;;;7.78;90.87;99419.63;271773;1268;22310;-83
2023/10/16 09:36:22;;;;;;;7.70;3.20;;;;;;;7.76;90.60;99418.79;271149;1264;22389;-82
2023/10/16 09:42:27;;;;;;;7.50;2.70;;;;;;;7.69;90.36;99427.45;270575;1272;22503;-82
2023/10/16 09:48:42;;;;;;;8.00;2.40;;;;;;;7.66;90.36;99426.35;270171;1272;22566;-82
2023/10/16 09:54:52;;;;;;;7.90;3.30;;;;;;;7.65;90.10;99430.36;271234;1272;22682;-81
2023/10/16 10:01:06;;;;;;;9.90;3.60;;;;;;;7.68;90.24;99431.38;272558;1273;23497;-82
2023/10/16 10:07:13;;;;;;;8.20;2.70;;;;;;;7.74;90.42;99432.66;272238;1272;23004;-81
2023/10/16 10:13:23;;;;;;;6.00;2.50;;;;;;;7.79;90.11;99437.26;271832;1272;22626;-83
2023/10/16 10:19:35;;;;;;;6.40;2.80;;;;;;;7.81;90.09;99439.09;272404;1272;22096;-81
2023/10/16 10:25:37;;;;;;;9.60;3.70;;;;;;;7.79;89.84;99439.81;271819;1272;22383;-82
2023/10/16 10:39:20;;;;;;;7.10;3.30;;;;;;;7.91;89.56;99444.59;272339;1272;24399;-82
2023/10/16 10:45:36;;;;;;;10.60;3.20;;;;;;;7.95;89.14;99442.70;272472;1272;22353;-85
2023/10/16 10:51:44;;;;;;;9.00;3.30;;;;;;;7.97;88.43;99440.41;272374;1264;22187;-83
2023/10/16 10:57:58;;;;;;;12.40;3.10;;;;;;;8.01;88.52;99436.70;272617;1272;22221;-83
2023/10/16 11:04:01;;;;;;;8.30;3.10;;;;;;;8.06;88.59;99427.33;272574;1273;22204;-82
2023/10/16 11:10:06;;;;;;;8.60;3.30;;;;;;;8.11;88.36;99426.69;272136;1272;22664;-83
2023/10/16 11:16:08;;;;;;;6.70;2.90;;;;;;;8.14;88.32;99430.36;272598;1272;22339;-82
2023/10/16 11:22:21;;;;;;;8.00;3.10;;;;;;;8.37;88.37;99429.36;272418;1272;22240;-82
2023/10/16 11:28:28;;;;;;;10.20;3.50;;;;;;;8.71;88.10;99423.39;272467;1266;22448;-85
2023/10/16 11:35:13;;;;;;;6.60;2.80;;;;;;;8.96;87.23;99426.45;272555;1273;22459;-82
2023/10/16 11:41:19;;;;;;;8.60;2.70;;;;;;;9.01;86.74;99425.65;271977;1265;22217;-83
2023/10/16 11:55:37;;;;;;;8.40;3.40;;;;;;;9.03;87.58;99420.46;270854;1272;22607;-81
2023/10/16 12:02:19;;;;;;;7.80;3.10;;;;;;;9.12;86.90;99414.04;272519;1272;22290;-83
2023/10/16 12:09:23;;;;;;;;;;;;;;;;;;;;;
2023/10/16 12:30:28;;;;;;;4.70;2.70;;;;;;;9.13;85.43;99399.78;271858;1270;22266;-82
2023/10/16 12:36:31;;;;;;;7.30;2.80;;;;;;;9.13;84.68;99398.05;271244;1272;22418;-82
2023/10/16 12:43:00;;;;;;;6.40;2.50;;;;;;;9.16;84.37;99392.29;270688;1268;22217;-83
2023/10/16 12:49:06;;;;;;;6.10;2.70;;;;;;;9.13;83.85;99392.76;269210;1271;23082;-83
2023/10/16 12:55:13;;;;;;;7.60;3.00;;;;;;;9.14;83.83;99389.73;272285;1274;22210;-82
2023/10/16 13:01:22;;;;;;;9.90;3.30;;;;;;;9.22;84.14;99382.73;270735;1272;22723;-82
2023/10/16 13:07:26;;;;;;;7.10;2.60;;;;;;;9.24;83.97;99382.02;269156;1272;22344;-82
2023/10/16 13:13:28;;;;;;;9.70;2.70;;;;;;;9.24;83.59;99383.80;272345;1272;22272;-82
2023/10/16 13:19:37;;;;;;;6.50;2.10;;;;;;;9.25;83.01;99376.34;272476;1272;22199;-84
2023/10/16 13:25:50;;;;;;;;;;;;;;;;;;;;;
2023/10/16 13:32:00;;;;;;;10.60;3.00;;;;;;;9.27;82.49;99369.91;271893;1273;22824;-82
2023/10/16 13:38:04;;;;;;;6.90;2.70;;;;;;;9.28;82.36;99360.01;272378;1272;22314;-83
2023/10/16 13:44:06;;;;;;;7.80;2.80;;;;;;;9.30;82.46;99363.80;272519;1262;22460;-83
2023/10/16 13:50:35;;;;;;;8.90;2.50;;;;;;;9.35;82.36;99359.55;272946;1274;23356;-81
2023/10/16 13:56:41;;;;;;;9.90;3.20;;;;;;;9.40;81.57;99361.83;271153;1272;22567;-83
2023/10/16 14:02:44;;;;;;;5.20;2.60;;;;;;;9.46;81.19;99367.89;271654;1272;22436;-83
2023/10/16 14:08:48;;;;;;;7.30;2.80;;;;;;;9.48;80.57;99374.59;270203;1272;24341;-83
2023/10/16 14:15:19;;;;;;;8.40;2.60;;;;;;;9.40;80.26;99372.36;270699;1268;22554;-82
2023/10/16 14:21:32;;;;;;;7.00;3.20;;;;;;;9.27;79.86;99370.44;272233;1269;22287;-80
2023/10/16 14:27:39;;;;;;;5.30;3.10;;;;;;;9.11;79.92;99369.38;269948;1273;22220;-83
2023/10/16 14:33:44;;;;;;;7.00;3.10;;;;;;;8.99;79.94;99367.31;270345;1265;22374;-82
2023/10/16 14:39:46;;;;;;;5.60;2.70;;;;;;;8.98;80.39;99363.94;272418;1265;23512;-83
2023/10/16 14:45:54;;;;;;;6.20;3.20;;;;;;;8.98;80.47;99363.15;272199;1267;22844;-83
2023/10/16 14:51:56;;;;;;;11.00;3.80;;;;;;;8.87;80.45;99362.72;272234;1272;22321;-85
2023/10/16 14:58:00;;;;;;;10.50;3.30;;;;;;;8.71;80.59;99366.25;272070;1272;23590;-83
2023/10/16 15:04:08;;;;;;;7.40;3.40;;;;;;;8.58;80.59;99365.86;272233;1259;23090;-82
2023/10/16 15:10:46;;;;;;;9.10;3.30;;;;;;;8.50;80.72;99367.36;272414;1273;23646;-82
2023/10/16 15:16:49;;;;;;;12.10;3.70;;;;;;;8.44;81.08;99372.59;272419;1272;22409;-84
2023/10/16 15:22:51;;;;;;;19.70;5.10;;;;;;;8.41;81.47;99372.41;272372;1274;22373;-84
2023/10/16 15:28:54;;;;;;;16.20;5.00;;;;;;;8.33;81.45;99378.06;271624;1268;23252;-82
2023/10/16 15:34:56;;;;;;;18.60;5.60;;;;;;;8.28;81.86;99377.16;272037;1273;22339;-83
2023/10/16 15:41:00;;;;;;;10.30;4.70;;;;;;;8.20;81.96;99379.89;272608;1273;23420;-83
2023/10/16 15:47:03;;;;;;;10.90;5.70;;;;;;;8.05;82.23;99380.88;272248;1272;22287;-83
2023/10/16 15:54:10;;;;;;;;;;;;;;;;;;;;;
2023/10/16 16:01:21;;;;;;;;;;;;;;;;;;;;;
2023/10/16 16:08:30;;;;;;;;;;;;;;;;;;;;;
2023/10/16 16:14:57;;;;;;;7.60;4.70;;;;;;;7.88;83.70;99401.61;272045;1273;22374;-83
2023/10/16 16:21:02;;;;;;;10.00;5.00;;;;;;;7.84;83.60;99411.36;272095;1270;22229;-83
2023/10/16 16:27:08;;;;;;;13.70;4.70;;;;;;;7.80;83.83;99415.63;272091;1273;23566;-83
2023/10/16 16:33:10;;;;;;;16.60;6.00;;;;;;;7.78;83.86;99423.11;272035;1273;22963;-83
2023/10/16 16:39:18;;;;;;;15.80;6.30;;;;;;;7.76;84.15;99427.56;272110;1273;22360;-82
2023/10/16 16:45:20;;;;;;;14.60;6.60;;;;;;;7.73;84.31;99431.14;271763;1273;22341;-86
2023/10/16 16:51:23;;;;;;;18.40;6.70;;;;;;;7.68;84.01;99432.55;272010;1273;23228;-81
2023/10/16 16:57:38;;;;;;;17.10;6.90;;;;;;;7.66;84.54;99440.59;272351;1267;22221;-82
2023/10/16 17:03:49;;;;;;;17.30;6.60;;;;;;;7.67;84.96;99440.63;270880;1273;22220;-82
2023/10/16 17:09:54;;;;;;;20.20;6.70;;;;;;;7.67;85.75;99449.89;271940;1274;22292;-82
2023/10/16 17:16:02;;;;;;;11.70;6.10;;;;;;;7.63;85.82;99459.27;272255;1272;22160;-82
2023/10/16 17:22:04;;;;;;;11.80;6.00;;;;;;;7.61;86.21;99464.05;271505;1273;22397;-82
2023/10/16 17:28:07;;;;;;;14.10;7.10;;;;;;;7.57;86.31;99466.40;270742;1272;22535;-81
2023/10/16 17:34:29;;;;;;;19.80;7.40;;;;;;;7.52;86.72;99473.23;270377;1272;23635;-82
2023/10/16 17:40:32;;;;;;;17.40;9.00;;;;;;;7.54;87.21;99472.07;271869;1272;22322;-81
2023/10/16 17:46:40;;;;;;;16.40;9.00;;;;;;;7.57;87.15;99471.75;269936;1273;23781;-82
2023/10/16 17:52:49;;;;;;;23.40;10.20;;;;;;;7.57;87.18;99477.52;269929;1271;22325;-81
2023/10/16 17:58:52;;;;;;;17.50;7.30;;;;;;;7.56;86.91;99482.11;271329;1272;23778;-82
2023/10/16 18:04:56;;;;;;;21.80;10.70;;;;;;;7.54;86.95;99481.02;271919;1266;23128;-82
2023/10/16 18:11:26;;;;;;;23.60;11.70;;;;;;;7.54;87.07;99483.52;272753;1274;22331;-81
2023/10/16 18:17:28;;;;;;;20.90;11.30;;;;;;;7.54;86.94;99489.96;272365;1272;22172;-83
2023/10/16 18:23:30;;;;;;;22.00;11.70;;;;;;;7.52;87.22;99492.98;272558;1273;22191;-82
2023/10/16 18:29:32;;;;;;;26.30;12.50;;;;;;;7.54;87.60;99500.73;272493;1273;22954;-82
2023/10/16 18:35:38;;;;;;;28.20;12.10;;;;;;;7.57;88.00;99507.42;271832;1272;22357;-82
2023/10/16 18:41:58;;;;;;;23.70;11.10;;;;;;;7.58;88.30;99514.70;272516;1272;22291;-82
2023/10/16 18:48:03;;;;;;;27.30;12.90;;;;;;;7.54;88.12;99520.86;272882;1274;22194;-82
2023/10/16 18:54:07;;;;;;;29.50;14.30;;;;;;;7.45;88.08;99524.41;272673;1274;22307;-81
2023/10/16 19:00:11;;;;;;;29.00;14.70;;;;;;;7.47;87.81;99526.34;272664;1273;22347;-82
2023/10/16 19:06:15;;;;;;;24.50;13.20;;;;;;;7.48;87.73;99532.14;272420;1272;23350;-82
2023/10/16 19:12:16;;;;;;;25.70;14.20;;;;;;;7.49;88.09;99539.72;272228;1272;22317;-82
2023/10/16 19:18:18;;;;;;;24.60;13.40;;;;;;;7.44;87.74;99543.98;272249;1272;22668;-83
2023/10/16 19:24:21;;;;;;;29.10;15.20;;;;;;;7.36;87.94;99546.61;270511;1272;22247;-82
2023/10/16 19:30:23;;;;;;;31.80;14.80;;;;;;;7.29;88.73;99550.20;271574;1272;22319;-82
2023/10/16 19:36:25;;;;;;;25.90;14.40;;;;;;;7.25;89.49;99558.54;270079;1272;23634;-83
2023/10/16 19:42:28;;;;;;;29.60;16.20;;;;;;;7.26;89.93;99561.28;272419;1272;22434;-83
2023/10/16 19:48:29;;;;;;;27.10;15.70;;;;;;;7.22;90.32;99560.22;271233;1272;22537;-82
2023/10/16 19:54:35;;;;;;;38.70;15.30;;;;;;;7.22;90.77;99563.04;271655;1262;23515;-83
2023/10/16 20:00:40;;;;;;;25.20;14.30;;;;;;;7.20;90.42;99565.59;272256;1274;22387;-82
2023/10/16 20:06:42;;;;;;;26.90;13.90;;;;;;;7.11;90.34;99572.52;272399;1273;22166;-83
2023/10/16 20:13:10;;;;;;;25.90;13.80;;;;;;;7.10;90.26;99571.48;271330;1272;22535;-83
2023/10/16 20:19:12;;;;;;;25.40;14.50;;;;;;;7.11;90.07;99571.69;270557;1272;22552;-85
2023/10/16 20:25:15;;;;;;;27.30;13.30;;;;;;;7.17;90.79;99576.55;271453;1274;22371;-82
2023/10/16 20:31:18;;;;;;;25.90;13.30;;;;;;;7.16;90.88;99577.99;272325;1273;22570;-82
2023/10/16 20:37:22;;;;;;;30.00;14.00;;;;;;;7.11;90.74;99578.84;270506;1272;23696;-83
2023/10/16 20:43:27;;;;;;;25.30;13.20;;;;;;;7.14;91.15;99586.87;270432;1272;23577;-82
2023/10/16 20:49:33;;;;;;;25.40;12.60;;;;;;;7.14;91.38;99587.18;272598;1273;23472;-81
2023/10/16 20:55:40;;;;;;;28.80;13.50;;;;;;;7.11;91.46;99590.88;272278;1272;22179;-81
2023/10/16 21:01:52;;;;;;;28.60;14.50;;;;;;;7.12;91.65;99592.39;272342;1272;23569;-82
2023/10/16 21:07:58;;;;;;;25.10;12.90;;;;;;;7.10;91.73;99594.36;271376;1272;23052;-84
2023/10/16 21:14:00;;;;;;;28.90;14.10;;;;;;;7.12;92.18;99595.95;270496;1272;23394;-82
2023/10/16 21:20:16;;;;;;;29.30;14.10;;;;;;;7.13;92.33;99595.84;271124;1270;22719;-82
2023/10/16 21:26:49;;;;;;;24.60;14.60;;;;;;;7.11;92.37;99596.95;272677;1267;22252;-82
2023/10/16 21:32:52;;;;;;;27.10;14.60;;;;;;;7.05;92.43;99594.98;272301;1273;23050;-83
2023/10/16 21:39:14;;;;;;;30.90;13.60;;;;;;;7.03;92.70;99595.44;272552;1273;22166;-83
2023/10/16 21:45:39;;;;;;;24.70;13.80;;;;;;;7.05;92.60;99593.85;271713;1271;22474;-83
2023/10/16 21:52:05;;;;;;;22.90;13.10;;;;;;;7.09;92.72;99588.48;270949;1272;22507;-83
2023/10/16 21:58:12;;;;;;;24.90;12.20;;;;;;;7.09;92.70;99585.71;270990;1273;22295;-83
2023/10/16 22:04:25;;;;;;;21.50;12.00;;;;;;;7.12;92.99;99585.62;272252;1272;22320;-83
2023/10/16 22:10:27;;;;;;;25.90;12.90;;;;;;;7.11;93.45;99585.90;272491;1273;22205;-83
2023/10/16 22:16:29;;;;;;;23.80;12.70;;;;;;;7.11;93.72;99590.42;272570;1273;23535;-82
2023/10/16 22:22:31;;;;;;;24.20;12.50;;;;;;;7.13;94.18;99591.36;272931;1275;22182;-83
2023/10/16 22:28:34;;;;;;;26.50;12.60;;;;;;;7.16;94.33;99585.86;272456;1267;22189;-83
2023/10/16 22:34:36;;;;;;;25.10;13.90;;;;;;;7.15;94.47;99582.46;272263;1272;22327;-82
2023/10/16 22:40:37;;;;;;;26.00;13.40;;;;;;;7.14;94.51;99581.09;272404;1272;22319;-81
2023/10/16 22:46:40;;;;;;;27.40;13.70;;;;;;;7.07;94.27;99585.48;272402;1272;22863;-82
2023/10/16 22:52:42;;;;;;;24.40;13.10;;;;;;;7.04;94.50;99584.03;272452;1272;22224;-82
2023/10/16 22:58:47;;;;;;;24.70;12.20;;;;;;;7.04;94.65;99583.26;272306;1273;23344;-82
2023/10/16 23:04:50;;;;;;;24.80;12.70;;;;;;;7.05;95.02;99585.33;272319;1272;22241;-84
2023/10/16 23:10:52;;;;;;;26.40;12.60;;;;;;;7.09;95.44;99583.73;272388;1272;22317;-82
2023/10/16 23:16:59;;;;;;;24.90;13.30;;;;;;;7.04;95.38;99579.96;272269;1273;22278;-84
2023/10/16 23:23:02;;;;;;;24.70;13.50;;;;;;;6.96;95.44;99576.75;272352;1272;22424;-82
2023/10/16 23:29:04;;;;;;;25.70;13.10;;;;;;;6.92;95.37;99571.96;272986;1272;22298;-82
2023/10/16 23:35:08;;;;;;;24.30;13.50;;;;;;;6.91;95.37;99567.55;272194;1272;22372;-81
2023/10/16 23:41:27;;;;;;;22.80;12.90;;;;;;;6.93;95.78;99567.70;272285;1272;22265;-82
2023/10/16 23:47:30;;;;;;;27.00;14.20;;;;;;;6.93;96.01;99565.61;272436;1272;23437;-82
2023/10/16 23:53:47;;;;;;;21.60;12.60;;;;;;;6.90;96.10;99562.70;273009;1273;22193;-81
2023/10/16 23:59:49;;;;;;;;;;;;;;;6.87;96.50;99565.23;272834;1275;22771;-82
